createdAt,value
2018-01-29T00:00:26.943Z,1021.83
2018-01-29T00:01:26.920Z,1021.81
2018-01-29T00:02:26.907Z,1021.86
2018-01-29T00:03:26.885Z,1021.82
2018-01-29T00:04:26.869Z,1021.84
2018-01-29T00:05:26.845Z,1021.75
2018-01-29T00:06:26.825Z,1021.74
2018-01-29T00:07:26.811Z,1021.73
2018-01-29T00:08:26.787Z,1021.79
2018-01-29T00:09:26.769Z,1021.70
2018-01-29T00:10:26.756Z,1021.65
2018-01-29T00:11:26.729Z,1021.66
2018-01-29T00:12:26.716Z,1021.68
2018-01-29T00:13:26.696Z,1021.68
2018-01-29T00:14:26.674Z,1021.64
2018-01-29T00:15:26.655Z,1021.70
2018-01-29T00:16:26.636Z,1021.68
2018-01-29T00:17:26.616Z,1021.78
2018-01-29T00:18:26.615Z,1021.68
2018-01-29T00:19:26.579Z,1021.72
2018-01-29T00:20:26.565Z,1021.67
2018-01-29T00:21:26.540Z,1021.67
2018-01-29T00:22:26.524Z,1021.68
2018-01-29T00:23:26.504Z,1021.63
2018-01-29T00:24:26.482Z,1021.66
2018-01-29T00:25:26.468Z,1021.54
2018-01-29T00:26:26.450Z,1021.58
2018-01-29T00:27:26.441Z,1021.58
2018-01-29T00:28:26.404Z,1021.58
2018-01-29T00:29:26.384Z,1021.61
2018-01-29T00:30:26.368Z,1021.56
2018-01-29T00:31:26.358Z,1021.57
2018-01-29T00:32:26.332Z,1021.56
2018-01-29T00:33:26.310Z,1021.54
2018-01-29T00:34:26.293Z,1021.54
2018-01-29T00:35:26.279Z,1021.54
2018-01-29T00:36:26.254Z,1021.56
2018-01-29T00:37:26.236Z,1021.48
2018-01-29T00:38:26.215Z,1021.42
2018-01-29T00:39:26.195Z,1021.48
2018-01-29T00:40:26.180Z,1021.47
2018-01-29T00:41:26.160Z,1021.45
2018-01-29T00:42:26.152Z,1021.41
2018-01-29T00:43:26.129Z,1021.50
2018-01-29T00:44:26.105Z,1021.47
2018-01-29T00:45:26.080Z,1021.43
2018-01-29T00:46:26.067Z,1021.37
2018-01-29T00:47:26.045Z,1021.48
2018-01-29T00:48:26.027Z,1021.48
2018-01-29T00:49:26.009Z,1021.47
2018-01-29T00:50:25.985Z,1021.41
2018-01-29T00:51:25.976Z,1021.47
2018-01-29T00:52:25.952Z,1021.51
2018-01-29T00:53:25.929Z,1021.47
2018-01-29T00:54:25.907Z,1021.36
2018-01-29T00:55:25.892Z,1021.39
2018-01-29T00:56:25.873Z,1021.42
2018-01-29T00:57:25.851Z,1021.45
2018-01-29T00:58:25.832Z,1021.41
2018-01-29T00:59:25.816Z,1021.41
2018-01-29T01:00:25.796Z,1021.40
2018-01-29T01:01:25.775Z,1021.39
2018-01-29T01:02:25.755Z,1021.34
2018-01-29T01:03:25.740Z,1021.26
2018-01-29T01:04:25.727Z,1021.26
2018-01-29T01:05:25.700Z,1021.24
2018-01-29T01:06:25.681Z,1021.20
2018-01-29T01:07:25.668Z,1021.22
2018-01-29T01:08:25.645Z,1021.23
2018-01-29T01:09:25.625Z,1021.26
2018-01-29T01:10:25.606Z,1021.32
2018-01-29T01:11:25.585Z,1021.15
2018-01-29T01:12:25.570Z,1021.20
2018-01-29T01:13:25.546Z,1021.19
2018-01-29T01:14:25.534Z,1021.16
2018-01-29T01:15:25.510Z,1021.24
2018-01-29T01:16:25.504Z,1021.18
2018-01-29T01:17:25.473Z,1021.13
2018-01-29T01:18:25.452Z,1021.24
2018-01-29T01:19:25.438Z,1021.23
2018-01-29T01:20:25.469Z,1021.15
2018-01-29T01:21:25.395Z,1021.18
2018-01-29T01:22:25.380Z,1021.18
2018-01-29T01:23:25.361Z,1021.23
2018-01-29T01:24:25.337Z,1021.22
2018-01-29T01:25:25.320Z,1021.20
2018-01-29T01:26:25.304Z,1021.25
2018-01-29T01:27:25.280Z,1021.26
2018-01-29T01:28:25.263Z,1021.20
2018-01-29T01:29:25.240Z,1021.20
2018-01-29T01:30:25.225Z,1021.20
2018-01-29T01:31:25.216Z,1021.18
2018-01-29T01:32:25.183Z,1021.19
2018-01-29T01:33:25.172Z,1021.13
2018-01-29T01:34:25.149Z,1021.12
2018-01-29T01:35:25.130Z,1021.10
2018-01-29T01:36:25.117Z,1021.15
2018-01-29T01:37:25.092Z,1021.16
2018-01-29T01:38:25.074Z,1021.09
2018-01-29T01:39:25.055Z,1021.08
2018-01-29T01:40:25.035Z,1021.12
2018-01-29T01:41:25.016Z,1021.11
2018-01-29T01:42:24.998Z,1021.08
2018-01-29T01:43:24.974Z,1021.17
2018-01-29T01:44:24.957Z,1021.08
2018-01-29T01:45:24.940Z,1021.09
2018-01-29T01:46:24.924Z,1021.07
2018-01-29T01:47:24.899Z,1021.01
2018-01-29T01:48:24.884Z,1021.02
2018-01-29T01:49:24.859Z,1021.01
2018-01-29T01:50:24.840Z,1020.94
2018-01-29T01:51:24.821Z,1021.02
2018-01-29T01:52:24.805Z,1020.90
2018-01-29T01:53:24.785Z,1020.87
2018-01-29T01:54:24.764Z,1020.90
2018-01-29T01:55:24.746Z,1020.91
2018-01-29T01:56:24.726Z,1020.86
2018-01-29T01:57:24.711Z,1020.89
2018-01-29T01:58:24.686Z,1020.88
2018-01-29T01:59:24.672Z,1020.88
2018-01-29T02:00:24.658Z,1020.84
2018-01-29T02:01:24.632Z,1020.85
2018-01-29T02:02:24.615Z,1020.84
2018-01-29T02:03:24.592Z,1020.89
2018-01-29T02:04:24.574Z,1020.83
2018-01-29T02:05:24.565Z,1020.77
2018-01-29T02:06:24.535Z,1020.86
2018-01-29T02:07:24.516Z,1020.80
2018-01-29T02:08:24.496Z,1020.80
2018-01-29T02:09:24.482Z,1020.67
2018-01-29T02:10:24.461Z,1020.71
2018-01-29T02:11:24.441Z,1020.72
2018-01-29T02:12:24.423Z,1020.71
2018-01-29T02:13:24.399Z,1020.70
2018-01-29T02:14:24.387Z,1020.66
2018-01-29T02:15:24.365Z,1020.71
2018-01-29T02:16:24.355Z,1020.68
2018-01-29T02:17:24.323Z,1020.69
2018-01-29T02:18:24.305Z,1020.73
2018-01-29T02:19:24.290Z,1020.72
2018-01-29T02:20:24.267Z,1020.61
2018-01-29T02:21:24.265Z,1020.66
2018-01-29T02:22:24.232Z,1020.60
2018-01-29T02:23:24.213Z,1020.63
2018-01-29T02:24:24.196Z,1020.63
2018-01-29T02:25:24.171Z,1020.60
2018-01-29T02:26:24.151Z,1020.63
2018-01-29T02:27:24.141Z,1020.56
2018-01-29T02:28:24.115Z,1020.58
2018-01-29T02:29:24.093Z,1020.50
2018-01-29T02:30:24.085Z,1020.50
2018-01-29T02:31:24.065Z,1020.42
2018-01-29T02:32:24.038Z,1020.49
2018-01-29T02:33:24.022Z,1020.41
2018-01-29T02:34:24.001Z,1020.49
2018-01-29T02:35:23.979Z,1020.47
2018-01-29T02:36:23.962Z,1020.52
2018-01-29T02:37:23.943Z,1020.51
2018-01-29T02:38:23.925Z,1020.50
2018-01-29T02:39:23.903Z,1020.43
2018-01-29T02:40:23.890Z,1020.46
2018-01-29T02:41:23.865Z,1020.48
2018-01-29T02:42:23.845Z,1020.43
2018-01-29T02:43:23.825Z,1020.42
2018-01-29T02:44:23.808Z,1020.35
2018-01-29T02:45:23.788Z,1020.39
2018-01-29T02:46:23.768Z,1020.31
2018-01-29T02:47:23.752Z,1020.29
2018-01-29T02:48:23.730Z,1020.29
2018-01-29T02:49:23.714Z,1020.20
2018-01-29T02:50:23.695Z,1020.24
2018-01-29T02:51:23.674Z,1020.28
2018-01-29T02:52:23.654Z,1020.30
2018-01-29T02:53:23.632Z,1020.25
2018-01-29T02:54:23.620Z,1020.22
2018-01-29T02:55:23.595Z,1020.24
2018-01-29T02:56:23.580Z,1020.26
2018-01-29T02:57:23.558Z,1020.28
2018-01-29T02:58:23.537Z,1020.29
2018-01-29T02:59:23.542Z,1020.21
2018-01-29T03:00:23.499Z,1020.21
2018-01-29T03:01:23.481Z,1020.23
2018-01-29T03:02:23.464Z,1020.17
2018-01-29T03:03:23.443Z,1020.19
2018-01-29T03:04:23.425Z,1020.23
2018-01-29T03:05:23.404Z,1020.24
2018-01-29T03:06:23.384Z,1020.25
2018-01-29T03:07:23.368Z,1020.14
2018-01-29T03:08:23.345Z,1020.14
2018-01-29T03:09:23.330Z,1020.12
2018-01-29T03:10:23.314Z,1020.11
2018-01-29T03:11:23.294Z,1020.09
2018-01-29T03:12:23.269Z,1020.11
2018-01-29T03:13:23.248Z,1020.01
2018-01-29T03:14:23.239Z,1020.04
2018-01-29T03:15:23.222Z,1020.04
2018-01-29T03:16:23.195Z,1020.06
2018-01-29T03:17:23.174Z,1020.05
2018-01-29T03:18:23.155Z,1020.04
2018-01-29T03:19:23.143Z,1019.97
2018-01-29T03:20:23.121Z,1020.01
2018-01-29T03:21:23.100Z,1019.97
2018-01-29T03:22:23.080Z,1019.97
2018-01-29T03:23:23.061Z,1019.93
2018-01-29T03:24:23.044Z,1019.99
2018-01-29T03:25:23.021Z,1019.93
2018-01-29T03:26:23.004Z,1019.92
2018-01-29T03:27:22.983Z,1019.97
2018-01-29T03:28:22.967Z,1019.94
2018-01-29T03:29:22.948Z,1019.94
2018-01-29T03:30:22.926Z,1019.95
2018-01-29T03:31:22.908Z,1019.91
2018-01-29T03:32:22.892Z,1019.88
2018-01-29T03:33:22.865Z,1019.96
2018-01-29T03:34:22.851Z,1020.00
2018-01-29T03:35:22.833Z,1019.93
2018-01-29T03:36:22.813Z,1019.94
2018-01-29T03:37:22.792Z,1019.97
2018-01-29T03:38:22.774Z,1019.94
2018-01-29T03:39:22.752Z,1019.95
2018-01-29T03:40:22.735Z,1019.94
2018-01-29T03:41:22.715Z,1019.94
2018-01-29T03:42:22.699Z,1019.93
2018-01-29T03:43:22.682Z,1019.96
2018-01-29T03:44:22.663Z,1019.88
2018-01-29T03:45:22.646Z,1019.85
2018-01-29T03:46:22.621Z,1019.93
2018-01-29T03:47:22.602Z,1019.87
2018-01-29T03:48:22.580Z,1019.89
2018-01-29T03:49:22.564Z,1019.87
2018-01-29T03:50:22.540Z,1019.89
2018-01-29T03:51:22.528Z,1019.81
2018-01-29T03:52:22.505Z,1019.88
2018-01-29T03:53:22.484Z,1019.87
2018-01-29T03:54:22.465Z,1019.87
2018-01-29T03:55:22.446Z,1019.80
2018-01-29T03:56:22.431Z,1019.85
2018-01-29T03:57:22.410Z,1019.84
2018-01-29T03:58:22.390Z,1019.83
2018-01-29T03:59:22.374Z,1019.85
2018-01-29T04:00:22.352Z,1019.78
2018-01-29T04:01:22.336Z,1019.79
2018-01-29T04:02:22.314Z,1019.84
2018-01-29T04:03:22.298Z,1019.85
2018-01-29T04:04:22.279Z,1019.82
2018-01-29T04:05:22.258Z,1019.80
2018-01-29T04:06:22.235Z,1019.83
2018-01-29T04:07:22.216Z,1019.76
2018-01-29T04:08:22.200Z,1019.75
2018-01-29T04:09:22.186Z,1019.72
2018-01-29T04:10:22.160Z,1019.70
2018-01-29T04:11:22.140Z,1019.67
2018-01-29T04:12:22.148Z,1019.69
2018-01-29T04:13:22.104Z,1019.62
2018-01-29T04:14:22.085Z,1019.71
2018-01-29T04:15:22.070Z,1019.66
2018-01-29T04:16:22.050Z,1019.69
2018-01-29T04:17:22.025Z,1019.66
2018-01-29T04:18:22.007Z,1019.64
2018-01-29T04:19:21.994Z,1019.67
2018-01-29T04:20:21.978Z,1019.66
2018-01-29T04:21:21.954Z,1019.55
2018-01-29T04:22:21.932Z,1019.55
2018-01-29T04:23:21.914Z,1019.56
2018-01-29T04:24:21.897Z,1019.56
2018-01-29T04:25:21.876Z,1019.58
2018-01-29T04:26:21.855Z,1019.60
2018-01-29T04:27:21.838Z,1019.55
2018-01-29T04:28:21.815Z,1019.54
2018-01-29T04:29:21.796Z,1019.52
2018-01-29T04:30:21.781Z,1019.52
2018-01-29T04:31:21.760Z,1019.52
2018-01-29T04:32:21.742Z,1019.53
2018-01-29T04:33:21.721Z,1019.50
2018-01-29T04:34:21.701Z,1019.50
2018-01-29T04:35:21.686Z,1019.49
2018-01-29T04:36:21.662Z,1019.46
2018-01-29T04:37:21.645Z,1019.36
2018-01-29T04:38:21.627Z,1019.37
2018-01-29T04:39:21.607Z,1019.36
2018-01-29T04:40:21.585Z,1019.33
2018-01-29T04:41:21.567Z,1019.39
2018-01-29T04:42:21.551Z,1019.36
2018-01-29T04:43:21.531Z,1019.37
2018-01-29T04:44:21.509Z,1019.38
2018-01-29T04:45:21.498Z,1019.36
2018-01-29T04:46:21.481Z,1019.39
2018-01-29T04:47:21.456Z,1019.37
2018-01-29T04:48:21.435Z,1019.36
2018-01-29T04:49:21.416Z,1019.40
2018-01-29T04:50:21.395Z,1019.46
2018-01-29T04:51:21.376Z,1019.46
2018-01-29T04:52:21.362Z,1019.39
2018-01-29T04:53:21.347Z,1019.45
2018-01-29T04:54:21.322Z,1019.53
2018-01-29T04:55:21.305Z,1019.41
2018-01-29T04:56:21.281Z,1019.39
2018-01-29T04:57:21.265Z,1019.42
2018-01-29T04:58:21.243Z,1019.48
2018-01-29T04:59:21.225Z,1019.43
2018-01-29T05:00:21.202Z,1019.49
2018-01-29T05:01:21.185Z,1019.40
2018-01-29T05:02:21.166Z,1019.43
2018-01-29T05:03:21.147Z,1019.43
2018-01-29T05:04:21.130Z,1019.46
2018-01-29T05:05:21.108Z,1019.44
2018-01-29T05:06:21.091Z,1019.35
2018-01-29T05:07:21.070Z,1019.39
2018-01-29T05:08:21.052Z,1019.39
2018-01-29T05:09:21.037Z,1019.45
2018-01-29T05:10:21.013Z,1019.42
2018-01-29T05:11:21.007Z,1019.31
2018-01-29T05:12:20.974Z,1019.39
2018-01-29T05:13:20.956Z,1019.37
2018-01-29T05:14:20.939Z,1019.40
2018-01-29T05:15:20.917Z,1019.39
2018-01-29T05:16:20.901Z,1019.32
2018-01-29T05:17:20.880Z,1019.44
2018-01-29T05:18:20.862Z,1019.41
2018-01-29T05:19:20.855Z,1019.42
2018-01-29T05:20:20.824Z,1019.42
2018-01-29T05:21:20.806Z,1019.37
2018-01-29T05:22:20.793Z,1019.35
2018-01-29T05:23:20.768Z,1019.40
2018-01-29T05:24:20.752Z,1019.43
2018-01-29T05:25:20.732Z,1019.40
2018-01-29T05:26:20.717Z,1019.43
2018-01-29T05:27:20.688Z,1019.44
2018-01-29T05:28:20.672Z,1019.39
2018-01-29T05:29:20.652Z,1019.43
2018-01-29T05:30:20.636Z,1019.47
2018-01-29T05:31:20.613Z,1019.38
2018-01-29T05:32:20.599Z,1019.38
2018-01-29T05:33:20.575Z,1019.44
2018-01-29T05:34:20.561Z,1019.37
2018-01-29T05:35:20.537Z,1019.38
2018-01-29T05:36:20.520Z,1019.35
2018-01-29T05:37:20.498Z,1019.37
2018-01-29T05:38:20.486Z,1019.40
2018-01-29T05:39:20.462Z,1019.36
2018-01-29T05:40:20.442Z,1019.39
2018-01-29T05:41:20.425Z,1019.27
2018-01-29T05:42:20.407Z,1019.27
2018-01-29T05:43:20.385Z,1019.30
2018-01-29T05:44:20.365Z,1019.31
2018-01-29T05:45:20.356Z,1019.23
2018-01-29T05:46:20.331Z,1019.23
2018-01-29T05:47:20.307Z,1019.15
2018-01-29T05:48:20.289Z,1019.12
2018-01-29T05:49:20.282Z,1019.12
2018-01-29T05:50:20.253Z,1019.12
2018-01-29T05:51:20.232Z,1019.14
2018-01-29T05:52:20.214Z,1019.19
2018-01-29T05:53:20.195Z,1019.17
2018-01-29T05:54:20.177Z,1019.12
2018-01-29T05:55:20.155Z,1019.20
2018-01-29T05:56:20.145Z,1019.22
2018-01-29T05:57:20.118Z,1019.15
2018-01-29T05:58:20.102Z,1019.12
2018-01-29T05:59:20.078Z,1019.21
2018-01-29T06:00:20.062Z,1019.17
2018-01-29T06:01:20.044Z,1019.38
2018-01-29T06:02:20.023Z,1019.21
2018-01-29T06:03:20.003Z,1019.14
2018-01-29T06:04:19.984Z,1019.12
2018-01-29T06:05:19.967Z,1019.16
2018-01-29T06:06:19.944Z,1019.18
2018-01-29T06:07:19.927Z,1019.09
2018-01-29T06:08:19.912Z,1019.20
2018-01-29T06:09:19.889Z,1019.15
2018-01-29T06:10:19.873Z,1019.20
2018-01-29T06:11:19.852Z,1019.16
2018-01-29T06:12:19.831Z,1019.21
2018-01-29T06:13:19.814Z,1019.24
2018-01-29T06:14:19.793Z,1019.16
2018-01-29T06:15:19.775Z,1019.17
2018-01-29T06:16:19.755Z,1019.23
2018-01-29T06:17:19.738Z,1019.20
2018-01-29T06:18:19.722Z,1019.24
2018-01-29T06:19:19.697Z,1019.26
2018-01-29T06:20:19.681Z,1019.22
2018-01-29T06:21:19.719Z,1019.18
2018-01-29T06:22:19.641Z,1019.23
2018-01-29T06:23:19.634Z,1019.23
2018-01-29T06:24:19.608Z,1019.19
2018-01-29T06:25:19.584Z,1019.19
2018-01-29T06:26:19.564Z,1019.22
2018-01-29T06:27:19.548Z,1019.15
2018-01-29T06:28:19.528Z,1019.21
2018-01-29T06:29:19.512Z,1019.21
2018-01-29T06:30:19.492Z,1019.20
2018-01-29T06:31:19.479Z,1019.10
2018-01-29T06:32:19.453Z,1019.11
2018-01-29T06:33:19.434Z,1019.14
2018-01-29T06:34:19.422Z,1019.10
2018-01-29T06:35:19.398Z,1019.13
2018-01-29T06:36:19.381Z,1019.15
2018-01-29T06:37:19.368Z,1019.18
2018-01-29T06:38:19.337Z,1019.05
2018-01-29T06:39:19.319Z,1019.12
2018-01-29T06:40:19.299Z,1019.11
2018-01-29T06:41:19.284Z,1019.13
2018-01-29T06:42:19.264Z,1019.11
2018-01-29T06:43:19.252Z,1019.16
2018-01-29T06:44:19.224Z,1019.21
2018-01-29T06:45:19.203Z,1019.13
2018-01-29T06:46:19.190Z,1019.17
2018-01-29T06:47:19.165Z,1019.22
2018-01-29T06:48:19.152Z,1019.28
2018-01-29T06:49:19.128Z,1019.32
2018-01-29T06:50:19.113Z,1019.37
2018-01-29T06:51:19.094Z,1019.24
2018-01-29T06:52:19.074Z,1019.29
2018-01-29T06:53:19.061Z,1019.24
2018-01-29T06:54:19.036Z,1019.23
2018-01-29T06:55:19.016Z,1019.19
2018-01-29T06:56:18.995Z,1019.13
2018-01-29T06:57:18.979Z,1019.12
2018-01-29T06:58:18.964Z,1019.21
2018-01-29T06:59:18.939Z,1019.09
2018-01-29T07:00:18.923Z,1019.19
2018-01-29T07:01:18.898Z,1019.16
2018-01-29T07:02:18.882Z,1019.13
2018-01-29T07:03:18.864Z,1019.15
2018-01-29T07:04:18.843Z,1019.14
2018-01-29T07:05:18.825Z,1019.19
2018-01-29T07:06:18.805Z,1019.10
2018-01-29T07:07:18.785Z,1019.22
2018-01-29T07:08:18.768Z,1019.14
2018-01-29T07:09:18.748Z,1019.14
2018-01-29T07:10:18.729Z,1019.18
2018-01-29T07:11:18.709Z,1019.10
2018-01-29T07:12:18.694Z,1019.16
2018-01-29T07:13:18.674Z,1019.24
2018-01-29T07:14:18.654Z,1019.17
2018-01-29T07:15:18.636Z,1019.19
2018-01-29T07:16:18.614Z,1019.09
2018-01-29T07:17:18.595Z,1019.11
2018-01-29T07:18:18.575Z,1019.13
2018-01-29T07:19:18.559Z,1019.09
2018-01-29T07:20:18.540Z,1019.11
2018-01-29T07:21:18.522Z,1019.15
2018-01-29T07:22:18.505Z,1019.04
2018-01-29T07:23:18.485Z,1019.11
2018-01-29T07:24:18.463Z,1018.99
2018-01-29T07:25:18.445Z,1018.98
2018-01-29T07:26:18.426Z,1018.99
2018-01-29T07:27:18.411Z,1019.04
2018-01-29T07:28:18.385Z,1019.03
2018-01-29T07:29:18.376Z,1019.05
2018-01-29T07:30:18.353Z,1018.98
2018-01-29T07:31:18.329Z,1018.93
2018-01-29T07:32:18.322Z,1018.95
2018-01-29T07:33:18.289Z,1019.02
2018-01-29T07:34:18.273Z,1018.97
2018-01-29T07:35:18.255Z,1018.94
2018-01-29T07:36:18.235Z,1018.95
2018-01-29T07:37:18.215Z,1018.93
2018-01-29T07:38:18.193Z,1019.06
2018-01-29T07:39:18.178Z,1019.02
2018-01-29T07:40:18.157Z,1019.07
2018-01-29T07:41:18.139Z,1018.96
2018-01-29T07:42:18.123Z,1018.95
2018-01-29T07:43:18.102Z,1018.90
2018-01-29T07:44:18.083Z,1018.96
2018-01-29T07:45:18.065Z,1018.99
2018-01-29T07:46:18.043Z,1018.90
2018-01-29T07:47:18.026Z,1019.01
2018-01-29T07:48:18.013Z,1018.98
2018-01-29T07:49:17.989Z,1019.02
2018-01-29T07:50:17.976Z,1018.97
2018-01-29T07:51:17.950Z,1018.93
2018-01-29T07:52:17.933Z,1019.04
2018-01-29T07:53:17.911Z,1019.10
2018-01-29T07:54:17.897Z,1019.03
2018-01-29T07:55:17.874Z,1019.03
2018-01-29T07:56:17.856Z,1019.03
2018-01-29T07:57:17.874Z,1019.06
2018-01-29T07:58:17.822Z,1019.01
2018-01-29T07:59:17.798Z,1019.01
2018-01-29T08:00:17.784Z,1019.05
2018-01-29T08:01:17.763Z,1019.06
2018-01-29T08:02:17.740Z,1019.04
2018-01-29T08:03:17.723Z,1019.00
2018-01-29T08:04:17.704Z,1018.98
2018-01-29T08:05:17.686Z,1019.02
2018-01-29T08:06:17.664Z,1018.99
2018-01-29T08:07:17.646Z,1018.99
2018-01-29T08:08:17.625Z,1018.99
2018-01-29T08:09:17.606Z,1019.00
2018-01-29T08:10:17.596Z,1018.96
2018-01-29T08:12:17.552Z,1019.03
2018-01-29T08:13:17.535Z,1019.02
2018-01-29T08:14:17.516Z,1019.02
2018-01-29T08:15:17.494Z,1018.98
2018-01-29T08:16:17.479Z,1018.99
2018-01-29T08:17:17.456Z,1019.00
2018-01-29T08:18:17.437Z,1019.05
2018-01-29T08:19:17.416Z,1019.06
2018-01-29T08:20:17.400Z,1019.06
2018-01-29T08:21:17.382Z,1019.01
2018-01-29T08:22:17.362Z,1018.97
2018-01-29T08:23:17.348Z,1018.99
2018-01-29T08:24:17.323Z,1018.95
2018-01-29T08:25:17.314Z,1018.97
2018-01-29T08:26:17.295Z,1019.02
2018-01-29T08:27:17.266Z,1019.06
2018-01-29T08:28:17.253Z,1019.08
2018-01-29T08:29:17.228Z,1019.10
2018-01-29T08:30:17.231Z,1019.14
2018-01-29T08:31:17.196Z,1019.12
2018-01-29T08:32:17.174Z,1019.09
2018-01-29T08:33:17.156Z,1019.13
2018-01-29T08:34:17.134Z,1019.11
2018-01-29T08:35:17.115Z,1019.09
2018-01-29T08:36:17.102Z,1019.08
2018-01-29T08:37:17.080Z,1019.05
2018-01-29T08:38:17.063Z,1019.01
2018-01-29T08:39:17.052Z,1018.99
2018-01-29T08:40:17.024Z,1019.00
2018-01-29T08:41:17.001Z,1019.00
2018-01-29T08:42:16.988Z,1018.93
2018-01-29T08:43:16.965Z,1018.93
2018-01-29T08:44:16.948Z,1018.96
2018-01-29T08:45:16.927Z,1018.92
2018-01-29T08:46:16.913Z,1018.92
2018-01-29T08:47:16.892Z,1018.91
2018-01-29T08:48:16.871Z,1018.91
2018-01-29T08:49:16.857Z,1018.83
2018-01-29T08:50:16.834Z,1018.81
2018-01-29T08:51:16.816Z,1018.76
2018-01-29T08:52:16.793Z,1018.80
2018-01-29T08:53:16.775Z,1018.68
2018-01-29T08:54:16.756Z,1018.69
2018-01-29T08:55:16.737Z,1018.69
2018-01-29T08:56:16.722Z,1018.72
2018-01-29T08:57:16.706Z,1018.79
2018-01-29T08:58:16.685Z,1018.81
2018-01-29T08:59:16.670Z,1018.74
2018-01-29T09:00:16.643Z,1018.72
2018-01-29T09:01:16.626Z,1018.71
2018-01-29T09:02:16.607Z,1018.66
2018-01-29T09:03:16.586Z,1018.71
2018-01-29T09:04:16.568Z,1018.75
2018-01-29T09:05:16.549Z,1018.73
2018-01-29T09:06:16.541Z,1018.68
2018-01-29T09:07:16.516Z,1018.71
2018-01-29T09:08:16.493Z,1018.61
2018-01-29T09:09:16.475Z,1018.52
2018-01-29T09:10:16.456Z,1018.60
2018-01-29T09:11:16.437Z,1018.59
2018-01-29T09:12:16.471Z,1018.62
2018-01-29T09:13:16.398Z,1018.67
2018-01-29T09:14:16.381Z,1018.62
2018-01-29T09:15:16.367Z,1018.65
2018-01-29T09:16:16.342Z,1018.69
2018-01-29T09:17:16.324Z,1018.65
2018-01-29T09:18:16.302Z,1018.55
2018-01-29T09:19:16.286Z,1018.63
2018-01-29T09:20:16.265Z,1018.57
2018-01-29T09:21:16.246Z,1018.60
2018-01-29T09:22:16.227Z,1018.71
2018-01-29T09:23:16.211Z,1018.64
2018-01-29T09:24:16.191Z,1018.61
2018-01-29T09:25:16.170Z,1018.63
2018-01-29T09:26:16.153Z,1018.60
2018-01-29T09:27:16.140Z,1018.64
2018-01-29T09:28:16.116Z,1018.66
2018-01-29T09:29:16.100Z,1018.63
2018-01-29T09:30:16.077Z,1018.64
2018-01-29T09:31:16.056Z,1018.63
2018-01-29T09:32:16.041Z,1018.57
2018-01-29T09:33:16.019Z,1018.61
2018-01-29T09:34:16.002Z,1018.54
2018-01-29T09:35:15.985Z,1018.59
2018-01-29T09:36:15.962Z,1018.57
2018-01-29T09:37:15.949Z,1018.53
2018-01-29T09:38:15.926Z,1018.55
2018-01-29T09:39:15.909Z,1018.54
2018-01-29T09:40:15.886Z,1018.53
2018-01-29T09:41:15.866Z,1018.64
2018-01-29T09:42:15.862Z,1018.58
2018-01-29T09:43:15.829Z,1018.66
2018-01-29T09:44:15.813Z,1018.61
2018-01-29T09:45:15.792Z,1018.65
2018-01-29T09:46:15.776Z,1018.64
2018-01-29T09:47:15.754Z,1018.50
2018-01-29T09:48:15.734Z,1018.55
2018-01-29T09:49:15.716Z,1018.58
2018-01-29T09:50:15.696Z,1018.59
2018-01-29T09:51:15.681Z,1018.55
2018-01-29T09:52:15.660Z,1018.61
2018-01-29T09:53:15.643Z,1018.61
2018-01-29T09:54:15.622Z,1018.61
2018-01-29T09:55:15.602Z,1018.59
2018-01-29T09:56:15.585Z,1018.69
2018-01-29T09:57:15.564Z,1018.64
2018-01-29T09:58:15.546Z,1018.68
2018-01-29T09:59:15.525Z,1018.66
2018-01-29T10:00:15.510Z,1018.64
2018-01-29T10:01:15.489Z,1018.59
2018-01-29T10:02:15.475Z,1018.55
2018-01-29T10:03:15.451Z,1018.52
2018-01-29T10:04:15.431Z,1018.45
2018-01-29T10:05:15.419Z,1018.41
2018-01-29T10:06:15.392Z,1018.42
2018-01-29T10:07:15.379Z,1018.45
2018-01-29T10:08:15.355Z,1018.54
2018-01-29T10:09:15.336Z,1018.39
2018-01-29T10:10:15.318Z,1018.46
2018-01-29T10:11:15.304Z,1018.40
2018-01-29T10:12:15.281Z,1018.30
2018-01-29T10:13:15.267Z,1018.39
2018-01-29T10:14:15.256Z,1018.36
2018-01-29T10:15:15.223Z,1018.31
2018-01-29T10:16:15.204Z,1018.27
2018-01-29T10:17:15.191Z,1018.36
2018-01-29T10:18:15.172Z,1018.31
2018-01-29T10:19:15.149Z,1018.33
2018-01-29T10:20:15.135Z,1018.34
2018-01-29T10:21:15.126Z,1018.35
2018-01-29T10:22:15.092Z,1018.31
2018-01-29T10:23:15.073Z,1018.32
2018-01-29T10:24:15.056Z,1018.33
2018-01-29T10:25:15.034Z,1018.39
2018-01-29T10:26:15.015Z,1018.39
2018-01-29T10:27:14.996Z,1018.35
2018-01-29T10:28:14.976Z,1018.29
2018-01-29T10:29:14.956Z,1018.35
2018-01-29T10:30:14.990Z,1018.33
2018-01-29T10:31:14.917Z,1018.35
2018-01-29T10:32:14.901Z,1018.34
2018-01-29T10:33:14.880Z,1018.34
2018-01-29T10:34:14.861Z,1018.30
2018-01-29T10:35:14.845Z,1018.31
2018-01-29T10:36:14.826Z,1018.25
2018-01-29T10:37:14.806Z,1018.25
2018-01-29T10:38:14.793Z,1018.25
2018-01-29T10:39:14.767Z,1018.27
2018-01-29T10:40:14.759Z,1018.22
2018-01-29T10:41:14.735Z,1018.18
2018-01-29T10:42:14.711Z,1018.19
2018-01-29T10:43:14.699Z,1018.17
2018-01-29T10:44:14.676Z,1018.16
2018-01-29T10:45:14.655Z,1018.18
2018-01-29T10:46:14.637Z,1018.07
2018-01-29T10:47:14.617Z,1018.00
2018-01-29T10:48:14.601Z,1018.03
2018-01-29T10:49:14.583Z,1018.01
2018-01-29T10:50:14.561Z,1018.02
2018-01-29T10:51:14.544Z,1017.94
2018-01-29T10:52:14.526Z,1017.89
2018-01-29T10:53:14.511Z,1017.92
2018-01-29T10:54:14.483Z,1017.90
2018-01-29T10:55:14.469Z,1017.86
2018-01-29T10:56:14.459Z,1017.92
2018-01-29T10:57:14.433Z,1017.81
2018-01-29T10:58:14.413Z,1017.88
2018-01-29T10:59:14.389Z,1017.83
2018-01-29T11:00:14.373Z,1017.87
2018-01-29T11:01:14.357Z,1017.84
2018-01-29T11:02:14.335Z,1017.82
2018-01-29T11:03:14.315Z,1017.89
2018-01-29T11:04:14.296Z,1017.84
2018-01-29T11:05:14.275Z,1017.81
2018-01-29T11:06:14.264Z,1017.77
2018-01-29T11:07:14.244Z,1017.69
2018-01-29T11:08:14.220Z,1017.73
2018-01-29T11:09:14.204Z,1017.75
2018-01-29T11:10:14.181Z,1017.82
2018-01-29T11:11:14.165Z,1017.79
2018-01-29T11:12:14.146Z,1017.78
2018-01-29T11:13:14.124Z,1017.75
2018-01-29T11:14:14.110Z,1017.75
2018-01-29T11:15:14.091Z,1017.69
2018-01-29T11:16:14.070Z,1017.65
2018-01-29T11:17:14.050Z,1017.67
2018-01-29T11:18:14.032Z,1017.65
2018-01-29T11:19:14.015Z,1017.60
2018-01-29T11:20:13.996Z,1017.61
2018-01-29T11:21:13.975Z,1017.54
2018-01-29T11:22:13.955Z,1017.57
2018-01-29T11:23:13.943Z,1017.57
2018-01-29T11:24:13.927Z,1017.54
2018-01-29T11:25:13.914Z,1017.55
2018-01-29T11:26:13.879Z,1017.54
2018-01-29T11:27:13.864Z,1017.54
2018-01-29T11:28:13.846Z,1017.51
2018-01-29T11:29:13.825Z,1017.47
2018-01-29T11:30:13.803Z,1017.39
2018-01-29T11:31:13.785Z,1017.53
2018-01-29T11:32:13.770Z,1017.41
2018-01-29T11:33:13.754Z,1017.40
2018-01-29T11:34:13.730Z,1017.39
2018-01-29T11:35:13.719Z,1017.45
2018-01-29T11:36:13.690Z,1017.39
2018-01-29T11:37:13.676Z,1017.30
2018-01-29T11:38:13.650Z,1017.28
2018-01-29T11:39:13.639Z,1017.34
2018-01-29T11:40:13.620Z,1017.31
2018-01-29T11:41:13.595Z,1017.24
2018-01-29T11:42:13.577Z,1017.30
2018-01-29T11:43:13.571Z,1017.21
2018-01-29T11:44:13.543Z,1017.12
2018-01-29T11:45:13.518Z,1017.19
2018-01-29T11:46:13.508Z,1017.17
2018-01-29T11:47:13.491Z,1017.16
2018-01-29T11:48:13.462Z,1017.19
2018-01-29T11:49:13.444Z,1017.10
2018-01-29T11:50:13.425Z,1017.12
2018-01-29T11:51:13.409Z,1017.05
2018-01-29T11:52:13.386Z,1016.99
2018-01-29T11:53:13.365Z,1017.02
2018-01-29T11:54:13.353Z,1016.99
2018-01-29T11:55:13.337Z,1017.01
2018-01-29T11:56:13.310Z,1016.96
2018-01-29T11:57:13.293Z,1016.92
2018-01-29T11:58:13.284Z,1016.95
2018-01-29T11:59:13.254Z,1016.86
2018-01-29T12:00:13.234Z,1016.83
2018-01-29T12:01:13.223Z,1016.86
2018-01-29T12:02:13.195Z,1016.82
2018-01-29T12:03:13.181Z,1016.73
2018-01-29T12:04:13.165Z,1016.75
2018-01-29T12:05:13.144Z,1016.69
2018-01-29T12:06:13.120Z,1016.65